sensor_id;sensor_type;location;lat;lon;timestamp;P1;durP1;ratioP1;P2;durP2;ratioP2
40931;SDS011;36257;46.052;12.540;2022-09-09T00:04:15;5.75;;;2.28;;
40931;SDS011;36257;46.052;12.540;2022-09-09T00:07:02;5.45;;;2.83;;
40931;SDS011;36257;46.052;12.540;2022-09-09T00:09:29;7.20;;;2.38;;
40931;SDS011;36257;46.052;12.540;2022-09-09T00:12:14;5.97;;;2.45;;
40931;SDS011;36257;46.052;12.540;2022-09-09T00:14:56;9.02;;;3.10;;
40931;SDS011;36257;46.052;12.540;2022-09-09T00:17:41;6.60;;;2.40;;
40931;SDS011;36257;46.052;12.540;2022-09-09T00:25:27;6.28;;;2.88;;
40931;SDS011;36257;46.052;12.540;2022-09-09T00:28:18;4.13;;;2.58;;
40931;SDS011;36257;46.052;12.540;2022-09-09T00:30:47;4.70;;;2.58;;
40931;SDS011;36257;46.052;12.540;2022-09-09T00:33:13;5.53;;;2.38;;
40931;SDS011;36257;46.052;12.540;2022-09-09T00:36:17;3.63;;;2.42;;
40931;SDS011;36257;46.052;12.540;2022-09-09T00:38:42;9.13;;;2.60;;
40931;SDS011;36257;46.052;12.540;2022-09-09T00:43:40;6.18;;;2.42;;
40931;SDS011;36257;46.052;12.540;2022-09-09T00:57:51;5.25;;;2.60;;
40931;SDS011;36257;46.052;12.540;2022-09-09T01:08:00;6.45;;;2.50;;
40931;SDS011;36257;46.052;12.540;2022-09-09T01:13:11;9.15;;;3.47;;
40931;SDS011;36257;46.052;12.540;2022-09-09T01:15:44;4.32;;;2.55;;
40931;SDS011;36257;46.052;12.540;2022-09-09T01:18:12;9.35;;;2.80;;
40931;SDS011;36257;46.052;12.540;2022-09-09T01:26:51;3.38;;;2.00;;
40931;SDS011;36257;46.052;12.540;2022-09-09T01:29:21;5.93;;;2.95;;
40931;SDS011;36257;46.052;12.540;2022-09-09T01:34:17;7.72;;;3.67;;
40931;SDS011;36257;46.052;12.540;2022-09-09T01:36:47;5.40;;;3.05;;
40931;SDS011;36257;46.052;12.540;2022-09-09T01:39:22;6.25;;;2.78;;
40931;SDS011;36257;46.052;12.540;2022-09-09T01:41:48;5.20;;;2.40;;
40931;SDS011;36257;46.052;12.540;2022-09-09T01:44:14;4.03;;;2.50;;
40931;SDS011;36257;46.052;12.540;2022-09-09T01:46:40;5.35;;;2.50;;
40931;SDS011;36257;46.052;12.540;2022-09-09T01:49:06;6.68;;;2.95;;
40931;SDS011;36257;46.052;12.540;2022-09-09T01:51:33;4.80;;;2.80;;
40931;SDS011;36257;46.052;12.540;2022-09-09T01:54:01;10.88;;;2.65;;
40931;SDS011;36257;46.052;12.540;2022-09-09T01:59:20;7.32;;;2.72;;
40931;SDS011;36257;46.052;12.540;2022-09-09T02:02:14;4.43;;;2.83;;
40931;SDS011;36257;46.052;12.540;2022-09-09T02:04:54;6.75;;;2.53;;
40931;SDS011;36257;46.052;12.540;2022-09-09T02:07:42;2.85;;;2.20;;
40931;SDS011;36257;46.052;12.540;2022-09-09T02:10:11;5.75;;;3.20;;
40931;SDS011;36257;46.052;12.540;2022-09-09T02:12:43;7.70;;;2.78;;
40931;SDS011;36257;46.052;12.540;2022-09-09T02:15:35;3.92;;;2.63;;
40931;SDS011;36257;46.052;12.540;2022-09-09T02:18:04;9.73;;;2.83;;
40931;SDS011;36257;46.052;12.540;2022-09-09T02:20:33;6.13;;;3.17;;
40931;SDS011;36257;46.052;12.540;2022-09-09T02:23:02;3.45;;;2.60;;
40931;SDS011;36257;46.052;12.540;2022-09-09T02:25:30;4.35;;;2.03;;
40931;SDS011;36257;46.052;12.540;2022-09-09T02:27:56;5.55;;;2.38;;
40931;SDS011;36257;46.052;12.540;2022-09-09T02:30:23;5.50;;;2.40;;
40931;SDS011;36257;46.052;12.540;2022-09-09T02:32:50;7.30;;;2.53;;
40931;SDS011;36257;46.052;12.540;2022-09-09T02:35:22;5.10;;;2.85;;
40931;SDS011;36257;46.052;12.540;2022-09-09T02:37:49;5.20;;;2.45;;
40931;SDS011;36257;46.052;12.540;2022-09-09T02:40:17;4.32;;;2.30;;
40931;SDS011;36257;46.052;12.540;2022-09-09T02:42:45;5.95;;;2.45;;
40931;SDS011;36257;46.052;12.540;2022-09-09T02:45:13;8.18;;;3.05;;
40931;SDS011;36257;46.052;12.540;2022-09-09T02:47:59;7.78;;;3.15;;
40931;SDS011;36257;46.052;12.540;2022-09-09T02:50:35;4.93;;;2.47;;
40931;SDS011;36257;46.052;12.540;2022-09-09T02:53:19;9.88;;;2.55;;
40931;SDS011;36257;46.052;12.540;2022-09-09T02:55:59;6.63;;;2.58;;
40931;SDS011;36257;46.052;12.540;2022-09-09T02:58:30;4.13;;;2.65;;
40931;SDS011;36257;46.052;12.540;2022-09-09T03:00:56;7.45;;;2.40;;
40931;SDS011;36257;46.052;12.540;2022-09-09T03:03:23;3.80;;;2.70;;
40931;SDS011;36257;46.052;12.540;2022-09-09T03:05:50;6.88;;;2.40;;
40931;SDS011;36257;46.052;12.540;2022-09-09T03:08:16;5.43;;;2.67;;
40931;SDS011;36257;46.052;12.540;2022-09-09T03:10:42;6.97;;;3.28;;
40931;SDS011;36257;46.052;12.540;2022-09-09T03:13:07;3.63;;;2.45;;
40931;SDS011;36257;46.052;12.540;2022-09-09T03:15:33;5.43;;;2.70;;
40931;SDS011;36257;46.052;12.540;2022-09-09T03:18:00;6.72;;;3.08;;
40931;SDS011;36257;46.052;12.540;2022-09-09T03:20:26;5.75;;;2.55;;
40931;SDS011;36257;46.052;12.540;2022-09-09T03:22:53;8.18;;;3.38;;
40931;SDS011;36257;46.052;12.540;2022-09-09T03:25:20;7.30;;;2.77;;
40931;SDS011;36257;46.052;12.540;2022-09-09T03:27:48;2.97;;;2.60;;
40931;SDS011;36257;46.052;12.540;2022-09-09T03:30:15;6.47;;;3.22;;
40931;SDS011;36257;46.052;12.540;2022-09-09T03:32:41;4.25;;;2.65;;
40931;SDS011;36257;46.052;12.540;2022-09-09T03:35:06;7.68;;;2.90;;
40931;SDS011;36257;46.052;12.540;2022-09-09T03:37:33;5.90;;;2.85;;
40931;SDS011;36257;46.052;12.540;2022-09-09T03:39:58;5.05;;;2.65;;
40931;SDS011;36257;46.052;12.540;2022-09-09T03:42:24;7.95;;;2.70;;
40931;SDS011;36257;46.052;12.540;2022-09-09T03:44:50;5.90;;;2.53;;
40931;SDS011;36257;46.052;12.540;2022-09-09T03:47:20;6.00;;;2.55;;
40931;SDS011;36257;46.052;12.540;2022-09-09T03:49:49;7.00;;;2.55;;
40931;SDS011;36257;46.052;12.540;2022-09-09T03:52:15;7.65;;;2.88;;
40931;SDS011;36257;46.052;12.540;2022-09-09T03:54:41;3.80;;;2.78;;
40931;SDS011;36257;46.052;12.540;2022-09-09T03:57:07;4.85;;;2.63;;
40931;SDS011;36257;46.052;12.540;2022-09-09T03:59:34;5.40;;;2.92;;
40931;SDS011;36257;46.052;12.540;2022-09-09T04:02:00;5.55;;;2.97;;
40931;SDS011;36257;46.052;12.540;2022-09-09T04:04:27;7.25;;;3.45;;
40931;SDS011;36257;46.052;12.540;2022-09-09T04:06:53;8.30;;;2.95;;
40931;SDS011;36257;46.052;12.540;2022-09-09T04:09:18;4.57;;;2.67;;
40931;SDS011;36257;46.052;12.540;2022-09-09T04:11:44;5.30;;;2.97;;
40931;SDS011;36257;46.052;12.540;2022-09-09T04:14:11;5.50;;;2.67;;
40931;SDS011;36257;46.052;12.540;2022-09-09T04:16:40;3.85;;;2.38;;
40931;SDS011;36257;46.052;12.540;2022-09-09T04:19:08;6.72;;;2.72;;
40931;SDS011;36257;46.052;12.540;2022-09-09T04:21:33;4.35;;;2.45;;
40931;SDS011;36257;46.052;12.540;2022-09-09T04:23:59;9.63;;;3.15;;
40931;SDS011;36257;46.052;12.540;2022-09-09T04:26:24;6.40;;;2.80;;
40931;SDS011;36257;46.052;12.540;2022-09-09T04:28:50;5.47;;;2.78;;
40931;SDS011;36257;46.052;12.540;2022-09-09T04:31:20;6.60;;;3.00;;
40931;SDS011;36257;46.052;12.540;2022-09-09T04:33:48;3.33;;;2.90;;
40931;SDS011;36257;46.052;12.540;2022-09-09T04:36:14;5.13;;;2.72;;
40931;SDS011;36257;46.052;12.540;2022-09-09T04:38:40;6.22;;;2.50;;
40931;SDS011;36257;46.052;12.540;2022-09-09T04:41:06;6.47;;;2.97;;
40931;SDS011;36257;46.052;12.540;2022-09-09T04:43:32;7.07;;;3.15;;
40931;SDS011;36257;46.052;12.540;2022-09-09T04:45:59;6.68;;;3.50;;
40931;SDS011;36257;46.052;12.540;2022-09-09T04:48:25;5.57;;;2.88;;
40931;SDS011;36257;46.052;12.540;2022-09-09T04:50:55;5.00;;;2.92;;
40931;SDS011;36257;46.052;12.540;2022-09-09T04:53:26;5.80;;;2.85;;
40931;SDS011;36257;46.052;12.540;2022-09-09T04:58:47;10.23;;;3.30;;
40931;SDS011;36257;46.052;12.540;2022-09-09T05:01:17;7.20;;;2.90;;
40931;SDS011;36257;46.052;12.540;2022-09-09T05:03:44;5.50;;;3.67;;
40931;SDS011;36257;46.052;12.540;2022-09-09T05:06:11;6.22;;;3.40;;
40931;SDS011;36257;46.052;12.540;2022-09-09T05:08:39;4.93;;;3.72;;
40931;SDS011;36257;46.052;12.540;2022-09-09T05:13:44;7.25;;;4.25;;
40931;SDS011;36257;46.052;12.540;2022-09-09T05:16:11;7.28;;;3.45;;
40931;SDS011;36257;46.052;12.540;2022-09-09T05:18:38;10.32;;;4.18;;
40931;SDS011;36257;46.052;12.540;2022-09-09T05:21:04;6.97;;;3.58;;
40931;SDS011;36257;46.052;12.540;2022-09-09T05:23:31;8.88;;;3.45;;
40931;SDS011;36257;46.052;12.540;2022-09-09T05:28:25;8.23;;;3.88;;
40931;SDS011;36257;46.052;12.540;2022-09-09T05:33:25;7.47;;;3.88;;
40931;SDS011;36257;46.052;12.540;2022-09-09T05:35:58;7.63;;;3.50;;
40931;SDS011;36257;46.052;12.540;2022-09-09T05:38:29;6.35;;;3.13;;
40931;SDS011;36257;46.052;12.540;2022-09-09T05:40:56;4.75;;;3.33;;
40931;SDS011;36257;46.052;12.540;2022-09-09T05:43:22;9.45;;;3.25;;
40931;SDS011;36257;46.052;12.540;2022-09-09T05:45:58;10.50;;;3.03;;
40931;SDS011;36257;46.052;12.540;2022-09-09T05:48:29;4.57;;;3.28;;
40931;SDS011;36257;46.052;12.540;2022-09-09T05:50:56;8.02;;;3.22;;
40931;SDS011;36257;46.052;12.540;2022-09-09T05:53:21;7.53;;;3.78;;
40931;SDS011;36257;46.052;12.540;2022-09-09T05:55:47;6.70;;;3.38;;
40931;SDS011;36257;46.052;12.540;2022-09-09T05:58:13;5.45;;;3.60;;
40931;SDS011;36257;46.052;12.540;2022-09-09T06:00:40;5.97;;;2.92;;
40931;SDS011;36257;46.052;12.540;2022-09-09T06:03:06;6.70;;;3.30;;
40931;SDS011;36257;46.052;12.540;2022-09-09T06:05:31;5.45;;;2.60;;
40931;SDS011;36257;46.052;12.540;2022-09-09T06:07:57;4.55;;;2.83;;
40931;SDS011;36257;46.052;12.540;2022-09-09T06:10:23;4.60;;;2.63;;
40931;SDS011;36257;46.052;12.540;2022-09-09T06:12:48;6.30;;;2.67;;
40931;SDS011;36257;46.052;12.540;2022-09-09T06:15:17;8.50;;;2.25;;
40931;SDS011;36257;46.052;12.540;2022-09-09T06:17:43;3.78;;;2.08;;
40931;SDS011;36257;46.052;12.540;2022-09-09T06:20:10;5.45;;;2.42;;
40931;SDS011;36257;46.052;12.540;2022-09-09T06:22:35;3.75;;;2.17;;
40931;SDS011;36257;46.052;12.540;2022-09-09T06:25:04;5.75;;;2.03;;
40931;SDS011;36257;46.052;12.540;2022-09-09T06:27:29;3.95;;;2.35;;
40931;SDS011;36257;46.052;12.540;2022-09-09T06:29:55;4.22;;;2.00;;
40931;SDS011;36257;46.052;12.540;2022-09-09T06:32:21;3.85;;;2.35;;
40931;SDS011;36257;46.052;12.540;2022-09-09T06:34:46;3.75;;;2.20;;
40931;SDS011;36257;46.052;12.540;2022-09-09T06:37:14;5.10;;;2.60;;
40931;SDS011;36257;46.052;12.540;2022-09-09T06:39:40;5.95;;;2.75;;
40931;SDS011;36257;46.052;12.540;2022-09-09T06:42:06;5.03;;;2.40;;
40931;SDS011;36257;46.052;12.540;2022-09-09T06:44:33;8.40;;;2.95;;
40931;SDS011;36257;46.052;12.540;2022-09-09T06:46:59;10.45;;;3.60;;
40931;SDS011;36257;46.052;12.540;2022-09-09T06:49:24;11.30;;;3.47;;
40931;SDS011;36257;46.052;12.540;2022-09-09T06:51:50;5.75;;;2.97;;
40931;SDS011;36257;46.052;12.540;2022-09-09T06:54:17;6.53;;;3.57;;
40931;SDS011;36257;46.052;12.540;2022-09-09T06:56:43;8.63;;;3.53;;
40931;SDS011;36257;46.052;12.540;2022-09-09T06:59:10;5.75;;;3.58;;
40931;SDS011;36257;46.052;12.540;2022-09-09T07:01:40;7.93;;;3.50;;
40931;SDS011;36257;46.052;12.540;2022-09-09T07:04:11;8.00;;;3.15;;
40931;SDS011;36257;46.052;12.540;2022-09-09T07:06:39;12.75;;;3.35;;
40931;SDS011;36257;46.052;12.540;2022-09-09T07:09:08;7.47;;;3.67;;
40931;SDS011;36257;46.052;12.540;2022-09-09T07:11:40;12.80;;;3.50;;
40931;SDS011;36257;46.052;12.540;2022-09-09T07:14:08;7.60;;;3.78;;
40931;SDS011;36257;46.052;12.540;2022-09-09T07:16:34;8.30;;;3.47;;
40931;SDS011;36257;46.052;12.540;2022-09-09T07:19:02;10.10;;;3.20;;
40931;SDS011;36257;46.052;12.540;2022-09-09T07:21:29;10.27;;;3.67;;
40931;SDS011;36257;46.052;12.540;2022-09-09T07:23:56;5.13;;;2.50;;
40931;SDS011;36257;46.052;12.540;2022-09-09T07:26:26;5.40;;;2.20;;
40931;SDS011;36257;46.052;12.540;2022-09-09T07:28:53;3.80;;;2.70;;
40931;SDS011;36257;46.052;12.540;2022-09-09T07:31:25;3.00;;;2.08;;
40931;SDS011;36257;46.052;12.540;2022-09-09T07:33:56;5.63;;;2.00;;
40931;SDS011;36257;46.052;12.540;2022-09-09T07:36:23;5.95;;;2.33;;
40931;SDS011;36257;46.052;12.540;2022-09-09T07:38:55;5.35;;;2.33;;
40931;SDS011;36257;46.052;12.540;2022-09-09T07:41:26;4.65;;;2.42;;
40931;SDS011;36257;46.052;12.540;2022-09-09T07:43:55;6.20;;;2.80;;
40931;SDS011;36257;46.052;12.540;2022-09-09T07:46:21;4.00;;;1.80;;
40931;SDS011;36257;46.052;12.540;2022-09-09T07:48:53;5.28;;;2.05;;
40931;SDS011;36257;46.052;12.540;2022-09-09T07:51:22;6.55;;;2.35;;
40931;SDS011;36257;46.052;12.540;2022-09-09T07:53:59;4.00;;;1.90;;
40931;SDS011;36257;46.052;12.540;2022-09-09T07:56:27;5.03;;;2.50;;
40931;SDS011;36257;46.052;12.540;2022-09-09T07:58:54;5.65;;;2.38;;
40931;SDS011;36257;46.052;12.540;2022-09-09T08:01:23;4.47;;;2.17;;
40931;SDS011;36257;46.052;12.540;2022-09-09T08:03:56;6.85;;;2.30;;
40931;SDS011;36257;46.052;12.540;2022-09-09T08:06:27;6.13;;;2.17;;
40931;SDS011;36257;46.052;12.540;2022-09-09T08:08:55;10.57;;;2.60;;
40931;SDS011;36257;46.052;12.540;2022-09-09T08:11:21;4.70;;;1.92;;
40931;SDS011;36257;46.052;12.540;2022-09-09T08:13:49;6.75;;;1.98;;
40931;SDS011;36257;46.052;12.540;2022-09-09T08:16:17;8.38;;;2.45;;
40931;SDS011;36257;46.052;12.540;2022-09-09T08:18:46;3.78;;;1.75;;
40931;SDS011;36257;46.052;12.540;2022-09-09T08:21:35;3.03;;;1.88;;
40931;SDS011;36257;46.052;12.540;2022-09-09T08:24:01;3.90;;;2.20;;
40931;SDS011;36257;46.052;12.540;2022-09-09T08:26:29;5.22;;;1.65;;
40931;SDS011;36257;46.052;12.540;2022-09-09T08:28:57;1.80;;;1.48;;
40931;SDS011;36257;46.052;12.540;2022-09-09T08:31:25;2.92;;;1.70;;
40931;SDS011;36257;46.052;12.540;2022-09-09T08:33:55;3.85;;;2.30;;
40931;SDS011;36257;46.052;12.540;2022-09-09T08:36:23;4.22;;;2.10;;
40931;SDS011;36257;46.052;12.540;2022-09-09T08:38:51;5.55;;;1.92;;
40931;SDS011;36257;46.052;12.540;2022-09-09T08:44:07;3.58;;;1.50;;
40931;SDS011;36257;46.052;12.540;2022-09-09T08:49:50;3.15;;;1.50;;
40931;SDS011;36257;46.052;12.540;2022-09-09T08:52:32;2.80;;;1.42;;
40931;SDS011;36257;46.052;12.540;2022-09-09T08:57:46;2.80;;;1.60;;
40931;SDS011;36257;46.052;12.540;2022-09-09T09:00:17;2.53;;;1.73;;
40931;SDS011;36257;46.052;12.540;2022-09-09T09:10:38;1.55;;;1.40;;
40931;SDS011;36257;46.052;12.540;2022-09-09T09:13:14;6.05;;;2.15;;
40931;SDS011;36257;46.052;12.540;2022-09-09T09:15:43;3.53;;;1.50;;
40931;SDS011;36257;46.052;12.540;2022-09-09T09:18:12;3.67;;;1.77;;
40931;SDS011;36257;46.052;12.540;2022-09-09T09:23:30;2.75;;;1.95;;
40931;SDS011;36257;46.052;12.540;2022-09-09T09:26:05;2.65;;;1.38;;
40931;SDS011;36257;46.052;12.540;2022-09-09T09:28:33;3.17;;;2.00;;
40931;SDS011;36257;46.052;12.540;2022-09-09T09:36:07;3.63;;;1.50;;
40931;SDS011;36257;46.052;12.540;2022-09-09T09:38:33;6.25;;;2.00;;
40931;SDS011;36257;46.052;12.540;2022-09-09T09:41:00;2.85;;;1.45;;
40931;SDS011;36257;46.052;12.540;2022-09-09T09:43:27;4.53;;;1.50;;
40931;SDS011;36257;46.052;12.540;2022-09-09T09:45:58;3.50;;;1.35;;
40931;SDS011;36257;46.052;12.540;2022-09-09T09:48:24;2.50;;;1.57;;
40931;SDS011;36257;46.052;12.540;2022-09-09T09:50:52;2.53;;;1.20;;
40931;SDS011;36257;46.052;12.540;2022-09-09T09:56:01;3.17;;;1.33;;
40931;SDS011;36257;46.052;12.540;2022-09-09T09:58:33;3.95;;;1.50;;
40931;SDS011;36257;46.052;12.540;2022-09-09T10:01:20;3.95;;;1.40;;
40931;SDS011;36257;46.052;12.540;2022-09-09T10:03:53;2.13;;;1.40;;
40931;SDS011;36257;46.052;12.540;2022-09-09T10:06:34;2.45;;;1.42;;
40931;SDS011;36257;46.052;12.540;2022-09-09T10:09:03;2.33;;;1.45;;
40931;SDS011;36257;46.052;12.540;2022-09-09T10:22:37;3.25;;;1.50;;
40931;SDS011;36257;46.052;12.540;2022-09-09T10:30:55;3.55;;;1.38;;
40931;SDS011;36257;46.052;12.540;2022-09-09T10:33:52;1.52;;;1.20;;
40931;SDS011;36257;46.052;12.540;2022-09-09T10:36:27;4.00;;;1.48;;
40931;SDS011;36257;46.052;12.540;2022-09-09T10:41:31;3.10;;;1.15;;
40931;SDS011;36257;46.052;12.540;2022-09-09T10:55:45;5.15;;;1.20;;
40931;SDS011;36257;46.052;12.540;2022-09-09T10:58:26;2.45;;;1.27;;
40931;SDS011;36257;46.052;12.540;2022-09-09T11:01:19;4.60;;;2.10;;
40931;SDS011;36257;46.052;12.540;2022-09-09T11:04:18;2.38;;;1.50;;
40931;SDS011;36257;46.052;12.540;2022-09-09T11:06:52;3.60;;;1.15;;
40931;SDS011;36257;46.052;12.540;2022-09-09T11:09:25;3.65;;;1.30;;
40931;SDS011;36257;46.052;12.540;2022-09-09T11:11:56;3.60;;;1.73;;
40931;SDS011;36257;46.052;12.540;2022-09-09T11:14:44;2.13;;;0.95;;
40931;SDS011;36257;46.052;12.540;2022-09-09T11:19:48;1.70;;;1.20;;
40931;SDS011;36257;46.052;12.540;2022-09-09T11:24:50;1.13;;;1.02;;
40931;SDS011;36257;46.052;12.540;2022-09-09T11:27:41;1.52;;;1.38;;
40931;SDS011;36257;46.052;12.540;2022-09-09T11:30:19;3.40;;;1.25;;
40931;SDS011;36257;46.052;12.540;2022-09-09T11:35:38;2.13;;;1.00;;
40931;SDS011;36257;46.052;12.540;2022-09-09T11:40:39;2.10;;;0.90;;
40931;SDS011;36257;46.052;12.540;2022-09-09T11:43:09;2.05;;;1.35;;
40931;SDS011;36257;46.052;12.540;2022-09-09T11:45:39;2.30;;;0.75;;
40931;SDS011;36257;46.052;12.540;2022-09-09T11:50:57;1.67;;;0.90;;
40931;SDS011;36257;46.052;12.540;2022-09-09T11:53:28;3.10;;;1.27;;
40931;SDS011;36257;46.052;12.540;2022-09-09T11:56:01;1.77;;;0.95;;
40931;SDS011;36257;46.052;12.540;2022-09-09T11:58:36;2.83;;;1.30;;
40931;SDS011;36257;46.052;12.540;2022-09-09T12:01:14;4.60;;;1.30;;
40931;SDS011;36257;46.052;12.540;2022-09-09T12:03:51;0.68;;;0.68;;
40931;SDS011;36257;46.052;12.540;2022-09-09T12:06:31;5.70;;;1.20;;
40931;SDS011;36257;46.052;12.540;2022-09-09T12:09:05;2.25;;;0.93;;
40931;SDS011;36257;46.052;12.540;2022-09-09T12:11:41;1.58;;;0.60;;
40931;SDS011;36257;46.052;12.540;2022-09-09T12:14:18;4.10;;;0.90;;
40931;SDS011;36257;46.052;12.540;2022-09-09T12:16:48;2.40;;;0.90;;
40931;SDS011;36257;46.052;12.540;2022-09-09T12:19:21;1.88;;;0.75;;
40931;SDS011;36257;46.052;12.540;2022-09-09T12:24:40;2.22;;;0.70;;
40931;SDS011;36257;46.052;12.540;2022-09-09T12:27:19;1.35;;;1.00;;
40931;SDS011;36257;46.052;12.540;2022-09-09T12:30:33;3.67;;;1.42;;
40931;SDS011;36257;46.052;12.540;2022-09-09T12:33:01;1.98;;;0.90;;
40931;SDS011;36257;46.052;12.540;2022-09-09T12:35:33;1.33;;;0.80;;
40931;SDS011;36257;46.052;12.540;2022-09-09T12:38:03;1.70;;;0.65;;
40931;SDS011;36257;46.052;12.540;2022-09-09T12:40:36;3.53;;;1.08;;
40931;SDS011;36257;46.052;12.540;2022-09-09T12:43:14;2.30;;;0.70;;
40931;SDS011;36257;46.052;12.540;2022-09-09T12:45:49;1.98;;;0.90;;
40931;SDS011;36257;46.052;12.540;2022-09-09T12:48:22;1.48;;;0.40;;
40931;SDS011;36257;46.052;12.540;2022-09-09T12:50:57;3.15;;;0.80;;
40931;SDS011;36257;46.052;12.540;2022-09-09T12:56:04;1.20;;;0.63;;
40931;SDS011;36257;46.052;12.540;2022-09-09T12:58:33;2.20;;;1.00;;
40931;SDS011;36257;46.052;12.540;2022-09-09T13:01:00;3.00;;;0.85;;
40931;SDS011;36257;46.052;12.540;2022-09-09T13:03:28;3.75;;;0.98;;
40931;SDS011;36257;46.052;12.540;2022-09-09T13:05:54;7.50;;;4.90;;
40931;SDS011;36257;46.052;12.540;2022-09-09T13:08:25;1.95;;;0.80;;
40931;SDS011;36257;46.052;12.540;2022-09-09T13:13:39;1.48;;;0.88;;
40931;SDS011;36257;46.052;12.540;2022-09-09T13:16:18;2.50;;;0.47;;
40931;SDS011;36257;46.052;12.540;2022-09-09T13:18:46;2.20;;;0.90;;
40931;SDS011;36257;46.052;12.540;2022-09-09T13:21:12;1.50;;;0.68;;
40931;SDS011;36257;46.052;12.540;2022-09-09T13:23:39;1.23;;;0.70;;
40931;SDS011;36257;46.052;12.540;2022-09-09T13:26:26;2.20;;;0.90;;
40931;SDS011;36257;46.052;12.540;2022-09-09T13:28:52;1.15;;;0.70;;
40931;SDS011;36257;46.052;12.540;2022-09-09T13:31:21;2.25;;;0.88;;
40931;SDS011;36257;46.052;12.540;2022-09-09T13:33:54;2.35;;;0.70;;
40931;SDS011;36257;46.052;12.540;2022-09-09T13:36:30;2.40;;;0.70;;
40931;SDS011;36257;46.052;12.540;2022-09-09T13:39:00;1.20;;;0.60;;
40931;SDS011;36257;46.052;12.540;2022-09-09T13:44:22;1.08;;;0.50;;
40931;SDS011;36257;46.052;12.540;2022-09-09T13:47:02;3.92;;;0.80;;
40931;SDS011;36257;46.052;12.540;2022-09-09T13:49:51;1.95;;;0.80;;
40931;SDS011;36257;46.052;12.540;2022-09-09T13:52:17;4.10;;;1.05;;
40931;SDS011;36257;46.052;12.540;2022-09-09T13:54:50;1.45;;;0.70;;
40931;SDS011;36257;46.052;12.540;2022-09-09T13:57:23;0.95;;;0.57;;
40931;SDS011;36257;46.052;12.540;2022-09-09T13:59:50;1.30;;;0.80;;
40931;SDS011;36257;46.052;12.540;2022-09-09T14:02:17;2.97;;;1.00;;
40931;SDS011;36257;46.052;12.540;2022-09-09T14:04:43;1.27;;;0.85;;
40931;SDS011;36257;46.052;12.540;2022-09-09T14:07:12;2.92;;;0.70;;
40931;SDS011;36257;46.052;12.540;2022-09-09T14:09:40;2.05;;;0.60;;
40931;SDS011;36257;46.052;12.540;2022-09-09T14:12:12;1.55;;;0.63;;
40931;SDS011;36257;46.052;12.540;2022-09-09T14:14:38;1.50;;;0.98;;
40931;SDS011;36257;46.052;12.540;2022-09-09T14:17:04;1.48;;;0.70;;
40931;SDS011;36257;46.052;12.540;2022-09-09T14:19:30;1.00;;;0.65;;
40931;SDS011;36257;46.052;12.540;2022-09-09T14:21:56;2.08;;;0.90;;
40931;SDS011;36257;46.052;12.540;2022-09-09T14:24:22;2.92;;;0.60;;
40931;SDS011;36257;46.052;12.540;2022-09-09T14:26:51;3.70;;;0.57;;
40931;SDS011;36257;46.052;12.540;2022-09-09T14:29:16;6.22;;;1.02;;
40931;SDS011;36257;46.052;12.540;2022-09-09T14:31:42;2.60;;;0.90;;
40931;SDS011;36257;46.052;12.540;2022-09-09T14:34:08;1.67;;;0.95;;
40931;SDS011;36257;46.052;12.540;2022-09-09T14:36:36;2.92;;;0.88;;
40931;SDS011;36257;46.052;12.540;2022-09-09T14:39:02;2.42;;;0.90;;
40931;SDS011;36257;46.052;12.540;2022-09-09T14:41:29;2.67;;;0.80;;
40931;SDS011;36257;46.052;12.540;2022-09-09T14:43:55;3.83;;;0.80;;
40931;SDS011;36257;46.052;12.540;2022-09-09T14:46:21;1.75;;;1.02;;
40931;SDS011;36257;46.052;12.540;2022-09-09T14:48:47;3.03;;;0.98;;
40931;SDS011;36257;46.052;12.540;2022-09-09T14:51:17;0.95;;;0.70;;
40931;SDS011;36257;46.052;12.540;2022-09-09T14:53:45;0.88;;;0.80;;
40931;SDS011;36257;46.052;12.540;2022-09-09T14:56:12;0.80;;;0.70;;
40931;SDS011;36257;46.052;12.540;2022-09-09T14:58:39;2.20;;;0.93;;
40931;SDS011;36257;46.052;12.540;2022-09-09T15:01:06;1.33;;;0.63;;
40931;SDS011;36257;46.052;12.540;2022-09-09T15:03:35;3.78;;;1.33;;
40931;SDS011;36257;46.052;12.540;2022-09-09T15:06:09;2.10;;;0.70;;
40931;SDS011;36257;46.052;12.540;2022-09-09T15:08:39;2.45;;;1.08;;
40931;SDS011;36257;46.052;12.540;2022-09-09T15:11:07;2.80;;;1.23;;
40931;SDS011;36257;46.052;12.540;2022-09-09T15:13:36;4.15;;;1.15;;
40931;SDS011;36257;46.052;12.540;2022-09-09T15:16:05;3.42;;;0.90;;
40931;SDS011;36257;46.052;12.540;2022-09-09T15:18:32;2.55;;;1.60;;
40931;SDS011;36257;46.052;12.540;2022-09-09T15:20:59;1.50;;;1.38;;
40931;SDS011;36257;46.052;12.540;2022-09-09T15:23:26;2.90;;;1.00;;
40931;SDS011;36257;46.052;12.540;2022-09-09T15:25:53;3.13;;;1.27;;
40931;SDS011;36257;46.052;12.540;2022-09-09T15:30:51;4.30;;;1.00;;
40931;SDS011;36257;46.052;12.540;2022-09-09T15:33:19;5.40;;;1.10;;
40931;SDS011;36257;46.052;12.540;2022-09-09T15:35:45;2.47;;;1.25;;
40931;SDS011;36257;46.052;12.540;2022-09-09T15:38:11;3.20;;;1.00;;
40931;SDS011;36257;46.052;12.540;2022-09-09T15:40:40;2.65;;;1.30;;
40931;SDS011;36257;46.052;12.540;2022-09-09T15:43:08;2.35;;;1.20;;
40931;SDS011;36257;46.052;12.540;2022-09-09T15:45:35;4.18;;;0.80;;
40931;SDS011;36257;46.052;12.540;2022-09-09T15:48:04;1.45;;;0.82;;
40931;SDS011;36257;46.052;12.540;2022-09-09T15:50:30;1.83;;;0.90;;
40931;SDS011;36257;46.052;12.540;2022-09-09T15:52:56;1.85;;;0.90;;
40931;SDS011;36257;46.052;12.540;2022-09-09T15:55:22;2.25;;;1.25;;
40931;SDS011;36257;46.052;12.540;2022-09-09T15:57:49;4.50;;;1.55;;
40931;SDS011;36257;46.052;12.540;2022-09-09T16:00:17;1.77;;;1.00;;
40931;SDS011;36257;46.052;12.540;2022-09-09T16:02:44;2.97;;;0.77;;
40931;SDS011;36257;46.052;12.540;2022-09-09T16:05:11;1.92;;;0.85;;
40931;SDS011;36257;46.052;12.540;2022-09-09T16:07:37;3.95;;;1.08;;
40931;SDS011;36257;46.052;12.540;2022-09-09T16:10:03;3.70;;;0.70;;
40931;SDS011;36257;46.052;12.540;2022-09-09T16:12:29;4.15;;;1.23;;
40931;SDS011;36257;46.052;12.540;2022-09-09T16:14:54;2.78;;;1.10;;
40931;SDS011;36257;46.052;12.540;2022-09-09T16:17:20;1.48;;;0.98;;
40931;SDS011;36257;46.052;12.540;2022-09-09T16:19:46;2.03;;;0.70;;
40931;SDS011;36257;46.052;12.540;2022-09-09T16:22:12;2.47;;;0.88;;
40931;SDS011;36257;46.052;12.540;2022-09-09T16:24:40;1.98;;;0.63;;
40931;SDS011;36257;46.052;12.540;2022-09-09T16:27:06;1.85;;;0.75;;
40931;SDS011;36257;46.052;12.540;2022-09-09T16:29:31;0.40;;;0.40;;
40931;SDS011;36257;46.052;12.540;2022-09-09T16:31:57;7.82;;;0.75;;
40931;SDS011;36257;46.052;12.540;2022-09-09T16:34:23;2.17;;;0.60;;
40931;SDS011;36257;46.052;12.540;2022-09-09T16:36:50;3.03;;;0.60;;
40931;SDS011;36257;46.052;12.540;2022-09-09T16:39:16;0.63;;;0.63;;
40931;SDS011;36257;46.052;12.540;2022-09-09T16:41:45;4.07;;;0.50;;
40931;SDS011;36257;46.052;12.540;2022-09-09T16:44:13;0.50;;;0.30;;
40931;SDS011;36257;46.052;12.540;2022-09-09T16:46:41;1.73;;;0.60;;
40931;SDS011;36257;46.052;12.540;2022-09-09T16:49:08;0.95;;;0.50;;
40931;SDS011;36257;46.052;12.540;2022-09-09T16:51:42;0.95;;;0.73;;
40931;SDS011;36257;46.052;12.540;2022-09-09T16:54:09;1.63;;;0.70;;
40931;SDS011;36257;46.052;12.540;2022-09-09T16:59:06;4.20;;;0.70;;
40931;SDS011;36257;46.052;12.540;2022-09-09T17:01:34;1.00;;;0.60;;
40931;SDS011;36257;46.052;12.540;2022-09-09T17:04:03;4.35;;;0.65;;
40931;SDS011;36257;46.052;12.540;2022-09-09T17:06:31;1.67;;;0.70;;
40931;SDS011;36257;46.052;12.540;2022-09-09T17:09:03;3.38;;;0.98;;
40931;SDS011;36257;46.052;12.540;2022-09-09T17:11:33;1.85;;;0.80;;